Time;durP1;ratioP1;P1;durP2;ratioP2;P2;SDS_P1;SDS_P2;PMS_P1;PMS_P2;Temp;Humidity;BMP_temperature;BMP_pressure;BME280_temperature;BME280_humidity;BME280_pressure;Samples;Min_cycle;Max_cycle;Signal;HPM_P1;HPM_P2
2020/12/16 00:00:59;;;;;;;3.60;3.30;;;;;21.40;100432.00;;;;2071638;28;20697;-65
2020/12/16 00:02:00;;;;;;;3.40;3.10;;;;;21.40;100430.00;;;;2064621;28;20214;-65
2020/12/16 00:03:00;;;;;;;5.03;3.53;;;;;21.40;100430.00;;;;2080144;28;20229;-65
2020/12/16 00:04:00;;;;;;;3.40;3.10;;;;;21.40;100435.00;;;;2073470;28;20332;-65
2020/12/16 00:05:01;;;;;;;4.03;3.07;;;;;21.40;100432.00;;;;2079165;28;20213;-65
2020/12/16 00:06:01;;;;;;;6.17;3.53;;;;;21.40;100430.00;;;;2080483;28;20209;-65
2020/12/16 00:07:01;;;;;;;3.63;3.30;;;;;21.40;100439.00;;;;2080733;28;20240;-65
2020/12/16 00:08:02;;;;;;;4.17;3.77;;;;;21.40;100444.00;;;;2072927;28;20222;-64
2020/12/16 00:09:02;;;;;;;3.57;3.27;;;;;21.40;100443.00;;;;2064128;28;20218;-65
2020/12/16 00:10:09;;;;;;;3.97;3.40;;;;;21.40;100440.00;;;;2071860;28;20214;-65
2020/12/16 00:11:09;;;;;;;3.83;3.50;;;;;21.40;100441.00;;;;2073474;28;20224;-65
2020/12/16 00:12:10;;;;;;;3.13;2.90;;;;;21.40;100443.00;;;;2081148;28;20212;-65
2020/12/16 00:13:10;;;;;;;3.83;3.47;;;;;21.40;100447.00;;;;2081220;28;20217;-65
2020/12/16 00:14:11;;;;;;;3.40;3.10;;;;;21.40;100440.00;;;;2081005;28;20220;-65
2020/12/16 00:15:11;;;;;;;3.17;2.80;;;;;21.40;100440.00;;;;2080029;28;20225;-65
2020/12/16 00:16:11;;;;;;;4.20;3.63;;;;;21.40;100438.00;;;;2073821;28;20245;-65
2020/12/16 00:17:12;;;;;;;3.37;2.97;;;;;21.40;100441.00;;;;2079532;28;20270;-65
2020/12/16 00:18:12;;;;;;;3.70;3.40;;;;;21.40;100444.00;;;;2073740;28;20217;-65
2020/12/16 00:19:12;;;;;;;3.43;3.13;;;;;21.40;100441.00;;;;2080003;28;20711;-65
2020/12/16 00:20:13;;;;;;;3.53;3.23;;;;;21.40;100444.00;;;;2073948;28;20235;-65
2020/12/16 00:21:19;;;;;;;4.20;3.73;;;;;21.40;100445.00;;;;2071153;28;20261;-65
2020/12/16 00:22:20;;;;;;;3.80;3.40;;;;;21.40;100440.00;;;;2059148;28;20221;-65
2020/12/16 00:23:20;;;;;;;5.10;3.70;;;;;21.40;100437.00;;;;2063507;28;20361;-64
2020/12/16 00:24:20;;;;;;;3.60;3.30;;;;;21.40;100444.00;;;;2066434;28;20261;-64
2020/12/16 00:25:21;;;;;;;3.50;3.10;;;;;21.40;100445.00;;;;2081135;28;20232;-64
2020/12/16 00:26:21;;;;;;;4.40;4.00;;;;;21.40;100442.00;;;;2079001;28;20695;-65
2020/12/16 00:27:22;;;;;;;3.43;3.13;;;;;21.40;100441.00;;;;2075142;28;20240;-65
2020/12/16 00:28:22;;;;;;;3.20;3.00;;;;;21.40;100442.00;;;;2076930;28;20278;-64
2020/12/16 00:29:23;;;;;;;3.37;3.17;;;;;21.30;100445.00;;;;2075362;28;20225;-65
2020/12/16 00:30:23;;;;;;;3.57;3.27;;;;;21.30;100446.00;;;;2081132;28;20212;-65
2020/12/16 00:31:23;;;;;;;3.63;3.33;;;;;21.30;100450.00;;;;2078538;28;20209;-64
2020/12/16 00:32:24;;;;;;;3.20;2.90;;;;;21.30;100448.00;;;;2075288;28;20216;-65
2020/12/16 00:33:24;;;;;;;3.73;3.37;;;;;21.30;100449.00;;;;2081005;28;20224;-64
2020/12/16 00:34:24;;;;;;;3.70;3.40;;;;;21.40;100450.00;;;;2070341;28;20219;-65
2020/12/16 00:35:29;;;;;;;3.53;3.23;;;;;21.40;100454.00;;;;2072145;28;20210;-65
2020/12/16 00:36:29;;;;;;;3.60;3.30;;;;;21.30;100446.00;;;;2071980;28;20228;-65
2020/12/16 00:37:29;;;;;;;3.57;3.27;;;;;21.30;100451.00;;;;2072772;28;20304;-64
2020/12/16 00:38:30;;;;;;;3.10;2.90;;;;;21.40;100453.00;;;;2077800;28;20729;-65
2020/12/16 00:39:30;;;;;;;4.77;3.30;;;;;21.30;100455.00;;;;2075866;28;20208;-65
2020/12/16 00:40:30;;;;;;;3.60;3.30;;;;;21.40;100461.00;;;;2077486;28;20227;-65
2020/12/16 00:41:32;;;;;;;4.97;3.27;;;;;21.30;100461.00;;;;2075597;28;20224;-65
2020/12/16 00:42:33;;;;;;;3.40;2.85;;;;;21.30;100451.00;;;;2080867;28;20215;-65
2020/12/16 00:43:33;;;;;;;3.72;3.42;;;;;21.40;100465.00;;;;2072082;28;20213;-65
2020/12/16 00:44:34;;;;;;;3.63;3.33;;;;;21.40;100465.00;;;;2071392;28;20220;-65
2020/12/16 00:45:34;;;;;;;3.47;3.23;;;;;21.40;100463.00;;;;2080894;28;20216;-65
2020/12/16 00:46:35;;;;;;;3.60;3.33;;;;;21.40;100464.00;;;;2076736;28;20205;-65
2020/12/16 00:47:35;;;;;;;4.03;3.63;;;;;21.30;100459.00;;;;2076651;28;20300;-65
2020/12/16 00:48:35;;;;;;;3.60;3.30;;;;;21.30;100458.00;;;;2076672;28;20228;-65
2020/12/16 00:49:36;;;;;;;3.70;3.40;;;;;21.40;100465.00;;;;2076930;28;20208;-65
2020/12/16 00:50:36;;;;;;;3.03;2.83;;;;;21.30;100467.00;;;;2076752;28;20221;-65
2020/12/16 00:51:36;;;;;;;3.30;3.00;;;;;21.30;100462.00;;;;2076931;28;20246;-65
2020/12/16 00:52:37;;;;;;;3.40;3.10;;;;;21.30;100464.00;;;;2076251;28;20212;-65
2020/12/16 00:53:37;;;;;;;3.37;3.10;;;;;21.30;100468.00;;;;2076927;28;20298;-65
2020/12/16 00:54:37;;;;;;;3.77;3.47;;;;;21.30;100466.00;;;;2076268;28;20208;-65
2020/12/16 00:55:38;;;;;;;3.40;3.10;;;;;21.30;100472.00;;;;2072774;28;20209;-65
2020/12/16 00:56:42;;;;;;;3.03;2.83;;;;;21.30;100466.00;;;;2076985;28;20200;-66
2020/12/16 00:57:43;;;;;;;3.85;3.50;;;;;21.30;100476.00;;;;2075648;28;20208;-65
2020/12/16 00:58:44;;;;;;;3.90;3.60;;;;;21.30;100474.00;;;;2077871;28;20232;-65
2020/12/16 00:59:44;;;;;;;3.40;3.10;;;;;21.30;100471.00;;;;2065614;28;20222;-65
2020/12/16 01:00:44;;;;;;;3.90;3.60;;;;;21.30;100477.00;;;;2063932;28;20216;-66
2020/12/16 01:01:45;;;;;;;3.47;3.17;;;;;21.30;100476.00;;;;2077766;28;20257;-65
2020/12/16 01:02:46;;;;;;;3.30;3.00;;;;;21.30;100489.00;;;;2074521;28;20233;-65
2020/12/16 01:03:46;;;;;;;3.70;3.40;;;;;21.30;100477.00;;;;2078094;28;20265;-66
2020/12/16 01:04:47;;;;;;;4.93;3.60;;;;;21.30;100476.00;;;;2074829;28;20638;-65
2020/12/16 01:05:47;;;;;;;3.80;3.50;;;;;21.30;100437.00;;;;2078210;28;20744;-65
2020/12/16 01:06:47;;;;;;;3.90;3.60;;;;;21.20;100477.00;;;;2074711;28;20672;-65
2020/12/16 01:07:48;;;;;;;5.20;3.27;;;;;21.20;100476.00;;;;2078249;28;20279;-65
2020/12/16 01:08:48;;;;;;;3.10;2.70;;;;;21.20;100482.00;;;;2074585;28;20713;-66
2020/12/16 01:09:49;;;;;;;3.50;3.20;;;;;21.20;100479.00;;;;2078333;28;20707;-65
2020/12/16 01:10:49;;;;;;;4.03;3.30;;;;;21.20;100488.00;;;;2074538;28;20223;-65
2020/12/16 01:11:50;;;;;;;3.50;3.20;;;;;21.20;100482.00;;;;2076242;28;20757;-65
2020/12/16 01:12:50;;;;;;;3.50;3.20;;;;;21.20;100493.00;;;;2080400;28;20642;-65
2020/12/16 01:13:50;;;;;;;4.70;3.20;;;;;21.20;100481.00;;;;2074278;28;20248;-65
2020/12/16 01:14:51;;;;;;;3.30;3.00;;;;;21.20;100488.00;;;;2079077;28;20231;-65
2020/12/16 01:15:51;;;;;;;3.80;3.23;;;;;21.20;100485.00;;;;2080413;28;20212;-66
2020/12/16 01:16:51;;;;;;;3.60;2.97;;;;;21.20;100493.00;;;;2073874;28;20245;-65
2020/12/16 01:17:52;;;;;;;5.43;3.40;;;;;21.20;100490.00;;;;2072312;28;20705;-66
2020/12/16 01:18:53;;;;;;;3.60;3.30;;;;;21.20;100491.00;;;;2079022;28;20221;-65
2020/12/16 01:19:53;;;;;;;3.93;3.37;;;;;21.20;100491.00;;;;2074134;28;20459;-66
2020/12/16 01:20:53;;;;;;;3.97;3.47;;;;;21.20;100494.00;;;;2079322;28;20221;-65
2020/12/16 01:21:54;;;;;;;4.23;3.37;;;;;21.20;100491.00;;;;2074298;28;20299;-65
2020/12/16 01:22:54;;;;;;;3.63;3.33;;;;;21.20;100496.00;;;;2078764;28;20222;-66
2020/12/16 01:23:54;;;;;;;3.50;3.20;;;;;21.20;100493.00;;;;2073623;28;20246;-65
2020/12/16 01:24:55;;;;;;;3.67;3.40;;;;;21.20;100501.00;;;;2079040;28;20298;-65
2020/12/16 01:25:55;;;;;;;3.40;3.13;;;;;21.10;100501.00;;;;2073539;28;20376;-66
2020/12/16 01:26:55;;;;;;;3.60;3.30;;;;;21.20;100502.00;;;;2078987;28;20231;-65
2020/12/16 01:27:59;;;;;;;3.30;2.93;;;;;21.10;100494.00;;;;2073611;28;20219;-65
2020/12/16 01:28:59;;;;;;;3.42;3.22;;;;;21.10;100494.00;;;;2079232;28;20221;-65
2020/12/16 01:29:59;;;;;;;3.20;2.90;;;;;21.20;100505.00;;;;2072787;28;20208;-65
2020/12/16 01:31:00;;;;;;;3.30;3.00;;;;;21.10;100490.00;;;;2079417;28;20227;-65
2020/12/16 01:32:00;;;;;;;3.37;3.07;;;;;21.10;100497.00;;;;2072544;28;20208;-65
2020/12/16 01:33:01;;;;;;;4.47;3.90;;;;;21.10;100491.00;;;;2079367;28;20968;-65
2020/12/16 01:34:01;;;;;;;4.03;3.63;;;;;21.10;100490.00;;;;2072596;28;20209;-65
2020/12/16 01:35:01;;;;;;;3.53;3.23;;;;;21.10;100491.00;;;;2079307;28;20219;-65
2020/12/16 01:36:02;;;;;;;3.70;3.40;;;;;21.10;100495.00;;;;2072298;28;20225;-65
2020/12/16 01:37:03;;;;;;;4.40;4.00;;;;;21.10;100498.00;;;;2079481;28;20730;-66
2020/12/16 01:38:03;;;;;;;3.50;3.20;;;;;21.10;100491.00;;;;2072245;28;20278;-65
2020/12/16 01:39:03;;;;;;;3.30;3.10;;;;;21.10;100498.00;;;;2079877;28;20456;-66
2020/12/16 01:40:07;;;;;;;3.47;3.17;;;;;21.10;100497.00;;;;2071959;28;20218;-65
2020/12/16 01:41:07;;;;;;;3.88;3.58;;;;;21.10;100502.00;;;;2072181;28;20680;-65
2020/12/16 01:42:08;;;;;;;3.80;3.50;;;;;21.10;100496.00;;;;2079787;28;20199;-65
2020/12/16 01:43:08;;;;;;;3.77;3.47;;;;;21.10;100494.00;;;;2079685;28;20200;-65
2020/12/16 01:44:10;;;;;;;3.90;3.60;;;;;21.10;100494.00;;;;2078822;28;20752;-66
2020/12/16 01:45:15;;;;;;;3.40;3.10;;;;;21.10;100498.00;;;;2073272;28;20352;-65
2020/12/16 01:46:16;;;;;;;2.92;2.72;;;;;21.10;100497.00;;;;2071234;28;20604;-65
2020/12/16 01:47:17;;;;;;;3.83;3.53;;;;;21.10;100495.00;;;;2071145;28;20308;-65
2020/12/16 01:48:17;;;;;;;4.20;3.90;;;;;21.10;100495.00;;;;2080000;28;20465;-65
2020/12/16 01:49:18;;;;;;;3.50;3.20;;;;;21.10;100491.00;;;;2078286;28;20243;-65
2020/12/16 01:50:19;;;;;;;3.53;3.22;;;;;21.10;100487.00;;;;2073579;28;20739;-65
2020/12/16 01:51:20;;;;;;;3.53;3.20;;;;;21.10;100489.00;;;;2078037;28;20227;-65
2020/12/16 01:52:20;;;;;;;3.42;3.15;;;;;21.10;100494.00;;;;2065172;28;20218;-65
2020/12/16 01:53:21;;;;;;;3.63;3.33;;;;;21.10;100493.00;;;;2068982;28;20304;-65
2020/12/16 01:54:22;;;;;;;4.00;3.70;;;;;21.10;100494.00;;;;2063070;28;20301;-66
2020/12/16 01:55:22;;;;;;;3.50;3.22;;;;;21.10;100490.00;;;;2064983;28;20217;-65
2020/12/16 01:56:23;;;;;;;3.40;3.10;;;;;21.10;100492.00;;;;2070968;28;20662;-65
2020/12/16 01:57:24;;;;;;;3.37;3.10;;;;;21.10;100496.00;;;;2062846;28;20322;-65
2020/12/16 01:58:24;;;;;;;4.00;3.60;;;;;21.10;100495.00;;;;2062725;28;20215;-65
2020/12/16 01:59:24;;;;;;;3.70;3.40;;;;;21.10;100495.00;;;;2068186;28;20229;-65
2020/12/16 02:00:25;;;;;;;3.60;3.30;;;;;21.00;100492.00;;;;2065268;28;20319;-65
2020/12/16 02:01:25;;;;;;;3.27;3.07;;;;;21.00;100482.00;;;;2062442;28;20660;-65
2020/12/16 02:02:27;;;;;;;3.77;3.47;;;;;21.10;100495.00;;;;2054305;28;20285;-65
2020/12/16 02:03:27;;;;;;;3.72;3.42;;;;;21.00;100486.00;;;;2062903;28;20224;-66
2020/12/16 02:04:29;;;;;;;3.47;3.23;;;;;21.00;100487.00;;;;2071102;28;20221;-65
2020/12/16 02:05:29;;;;;;;3.45;3.15;;;;;21.00;100488.00;;;;2070947;28;20291;-65
2020/12/16 02:06:31;;;;;;;3.70;3.40;;;;;21.00;100498.00;;;;2063011;28;20217;-66
2020/12/16 02:07:32;;;;;;;4.10;3.80;;;;;21.00;100479.00;;;;2059220;28;20280;-65
2020/12/16 02:08:32;;;;;;;3.20;3.00;;;;;21.00;100487.00;;;;2058475;28;21120;-65
2020/12/16 02:09:40;;;;;;;3.23;3.03;;;;;21.00;100479.00;;;;2059279;28;20327;-65
2020/12/16 02:10:40;;;;;;;2.90;2.70;;;;;21.00;100489.00;;;;2068724;28;20721;-65
2020/12/16 02:11:40;;;;;;;3.50;3.20;;;;;21.00;100482.00;;;;2078674;28;20321;-65
2020/12/16 02:12:41;;;;;;;3.70;3.40;;;;;21.00;100490.00;;;;2079791;28;20717;-65
2020/12/16 02:13:41;;;;;;;3.73;3.43;;;;;21.00;100489.00;;;;2074273;28;20705;-65
2020/12/16 02:14:42;;;;;;;3.80;3.40;;;;;21.00;100486.00;;;;2076072;28;20307;-66
2020/12/16 02:15:42;;;;;;;2.90;2.70;;;;;21.00;100490.00;;;;2074757;28;20216;-67
2020/12/16 02:16:43;;;;;;;3.40;3.20;;;;;21.00;100488.00;;;;2076510;28;20704;-65
2020/12/16 02:17:43;;;;;;;3.93;3.63;;;;;21.00;100484.00;;;;2074495;28;20827;-66
2020/12/16 02:18:47;;;;;;;3.50;3.30;;;;;21.00;100485.00;;;;2076712;28;20322;-65
2020/12/16 02:19:52;;;;;;;3.30;3.10;;;;;21.00;100490.00;;;;2073893;28;20232;-66
2020/12/16 02:20:52;;;;;;;3.28;2.85;;;;;21.00;100480.00;;;;2062686;28;20229;-65
2020/12/16 02:21:53;;;;;;;3.90;3.60;;;;;21.00;100479.00;;;;2063833;28;20699;-65
2020/12/16 02:22:54;;;;;;;4.30;3.90;;;;;21.00;100490.00;;;;2063653;28;20724;-66
2020/12/16 02:24:02;;;;;;;4.00;3.33;;;;;21.00;100484.00;;;;2055689;28;20205;-65
2020/12/16 02:25:04;;;;;;;3.30;3.10;;;;;21.00;100491.00;;;;2054722;28;20869;-65
2020/12/16 02:26:05;;;;;;;3.40;3.10;;;;;21.00;100489.00;;;;2063024;28;20222;-65
2020/12/16 02:27:05;;;;;;;3.40;3.00;;;;;21.00;100490.00;;;;2062213;28;20222;-65
2020/12/16 02:28:07;;;;;;;3.57;3.27;;;;;21.00;100500.00;;;;2070924;28;20239;-65
2020/12/16 02:29:08;;;;;;;4.15;3.85;;;;;21.00;100495.00;;;;2078962;28;20284;-65
2020/12/16 02:30:11;;;;;;;4.07;3.20;;;;;21.00;100504.00;;;;2079098;28;20219;-65
2020/12/16 02:31:12;;;;;;;3.30;3.00;;;;;20.90;100503.00;;;;2072460;28;20212;-65
2020/12/16 02:32:12;;;;;;;4.90;3.37;;;;;21.00;100512.00;;;;2069916;28;20269;-65
2020/12/16 02:33:13;;;;;;;3.47;3.00;;;;;21.00;100500.00;;;;2062133;28;20225;-65
2020/12/16 02:34:13;;;;;;;4.67;3.43;;;;;20.90;100508.00;;;;2070325;28;20457;-65
2020/12/16 02:35:13;;;;;;;3.50;3.20;;;;;20.90;100508.00;;;;2072414;28;20260;-65
2020/12/16 02:36:14;;;;;;;3.97;3.57;;;;;20.90;100511.00;;;;2079089;28;20215;-65
2020/12/16 02:37:14;;;;;;;4.30;3.20;;;;;20.90;100505.00;;;;2079548;28;20210;-65
2020/12/16 02:38:14;;;;;;;3.93;3.60;;;;;20.90;100512.00;;;;2079265;28;20240;-65
2020/12/16 02:39:15;;;;;;;3.77;3.47;;;;;20.90;100503.00;;;;2078152;28;20281;-65
2020/12/16 02:40:15;;;;;;;3.63;3.33;;;;;20.90;100501.00;;;;2078273;28;20228;-65
2020/12/16 02:41:15;;;;;;;3.73;3.30;;;;;20.90;100506.00;;;;2072846;28;20216;-65
2020/12/16 02:42:20;;;;;;;3.97;3.57;;;;;20.90;100508.00;;;;2078200;28;20240;-66
2020/12/16 02:43:20;;;;;;;3.40;3.10;;;;;20.90;100493.00;;;;2073420;28;20242;-65
2020/12/16 02:44:20;;;;;;;3.00;2.80;;;;;20.90;100503.00;;;;2077456;28;20216;-65
2020/12/16 02:45:21;;;;;;;3.60;3.33;;;;;20.90;100507.00;;;;2073017;28;20302;-66
2020/12/16 02:46:21;;;;;;;3.53;3.23;;;;;20.90;100502.00;;;;2078966;28;20216;-65
2020/12/16 02:47:21;;;;;;;3.77;3.47;;;;;20.90;100504.00;;;;2079298;28;20217;-65
2020/12/16 02:48:22;;;;;;;3.63;3.33;;;;;20.90;100499.00;;;;2079355;28;20212;-65
2020/12/16 02:49:22;;;;;;;3.70;3.40;;;;;20.90;100499.00;;;;2077106;28;20239;-65
2020/12/16 02:50:23;;;;;;;3.57;3.27;;;;;20.90;100496.00;;;;2065068;28;20293;-65
2020/12/16 02:51:23;;;;;;;3.40;3.10;;;;;20.90;100505.00;;;;2068381;28;20249;-66
2020/12/16 02:52:23;;;;;;;3.33;3.03;;;;;20.90;100503.00;;;;2073846;28;20260;-66
2020/12/16 02:53:24;;;;;;;3.00;2.80;;;;;20.90;100508.00;;;;2079354;28;20708;-65
2020/12/16 02:54:24;;;;;;;4.40;3.23;;;;;20.90;100509.00;;;;2076731;28;20710;-65
2020/12/16 02:55:24;;;;;;;3.30;3.00;;;;;20.90;100509.00;;;;2065156;28;20220;-65
2020/12/16 02:56:25;;;;;;;3.50;3.20;;;;;20.90;100514.00;;;;2067820;28;20701;-65
2020/12/16 02:57:25;;;;;;;3.37;3.17;;;;;20.90;100504.00;;;;2068582;28;20243;-66
2020/12/16 02:58:26;;;;;;;4.40;3.00;;;;;20.90;100507.00;;;;2076771;28;24942;-65
2020/12/16 02:59:26;;;;;;;3.53;3.23;;;;;20.90;100509.00;;;;2074281;28;20224;-66
2020/12/16 03:00:27;;;;;;;4.87;3.10;;;;;20.90;100514.00;;;;2076489;28;20236;-65
2020/12/16 03:01:27;;;;;;;5.23;3.20;;;;;20.90;100511.00;;;;2073142;28;20220;-65
2020/12/16 03:02:27;;;;;;;3.20;3.00;;;;;20.90;100507.00;;;;2076483;28;20730;-65
2020/12/16 03:03:28;;;;;;;3.40;3.10;;;;;20.90;100512.00;;;;2074108;28;20678;-66
2020/12/16 03:04:28;;;;;;;3.47;3.17;;;;;20.90;100502.00;;;;2076182;28;20703;-66
2020/12/16 03:05:28;;;;;;;3.50;3.20;;;;;20.90;100506.00;;;;2074070;28;20735;-65
2020/12/16 03:06:29;;;;;;;3.60;3.30;;;;;20.90;100501.00;;;;2075384;28;20698;-65
2020/12/16 03:07:29;;;;;;;4.13;3.73;;;;;20.90;100491.00;;;;2074362;28;20588;-65
2020/12/16 03:08:29;;;;;;;3.67;3.37;;;;;20.80;100492.00;;;;2076222;28;20765;-65
2020/12/16 03:09:30;;;;;;;3.37;3.10;;;;;20.80;100498.00;;;;2074681;28;20215;-65
2020/12/16 03:10:30;;;;;;;3.00;2.80;;;;;20.80;100499.00;;;;2075771;28;20303;-65
2020/12/16 03:11:30;;;;;;;3.00;2.80;;;;;20.80;100498.00;;;;2073920;28;20346;-66
2020/12/16 03:12:31;;;;;;;4.20;3.30;;;;;20.80;100494.00;;;;2075911;28;20220;-65
2020/12/16 03:13:31;;;;;;;4.07;3.67;;;;;20.80;100495.00;;;;2074736;28;20227;-66
2020/12/16 03:14:31;;;;;;;3.20;3.00;;;;;20.80;100500.00;;;;2075785;28;20224;-65
2020/12/16 03:15:32;;;;;;;6.23;3.37;;;;;20.80;100490.00;;;;2071310;28;20311;-65
2020/12/16 03:16:32;;;;;;;3.47;2.90;;;;;20.80;100500.00;;;;2074534;28;20217;-66
2020/12/16 03:17:33;;;;;;;4.57;3.00;;;;;20.80;100497.00;;;;2079344;28;20295;-66
2020/12/16 03:18:33;;;;;;;3.03;2.83;;;;;20.80;100500.00;;;;2078834;28;20215;-66
2020/12/16 03:19:34;;;;;;;3.47;3.13;;;;;20.80;100499.00;;;;2079369;28;20497;-66
2020/12/16 03:20:34;;;;;;;3.40;3.10;;;;;20.80;100506.00;;;;2075484;28;20696;-66
2020/12/16 03:21:34;;;;;;;3.57;3.00;;;;;20.80;100506.00;;;;2075216;28;20224;-65
2020/12/16 03:22:35;;;;;;;3.13;2.93;;;;;20.80;100503.00;;;;2075369;28;20216;-66
2020/12/16 03:23:35;;;;;;;3.37;3.10;;;;;20.80;100499.00;;;;2075220;28;20217;-66
2020/12/16 03:24:36;;;;;;;3.40;2.93;;;;;20.80;100511.00;;;;2075149;28;20305;-66
2020/12/16 03:25:36;;;;;;;3.20;3.00;;;;;20.80;100497.00;;;;2075593;28;20233;-65
2020/12/16 03:26:40;;;;;;;3.67;3.37;;;;;20.80;100498.00;;;;2076468;28;20229;-65
2020/12/16 03:27:40;;;;;;;3.50;3.20;;;;;20.80;100501.00;;;;2076895;28;20219;-65
2020/12/16 03:28:40;;;;;;;3.10;2.90;;;;;20.80;100503.00;;;;2076117;28;20263;-65
2020/12/16 03:29:41;;;;;;;3.50;3.20;;;;;20.80;100500.00;;;;2077720;28;20240;-66
2020/12/16 03:30:41;;;;;;;3.20;2.90;;;;;20.80;100494.00;;;;2076111;28;20220;-65
2020/12/16 03:31:41;;;;;;;4.37;3.43;;;;;20.80;100501.00;;;;2077732;28;20219;-65
2020/12/16 03:32:42;;;;;;;3.50;3.20;;;;;20.80;100492.00;;;;2075885;28;20238;-65
2020/12/16 03:33:43;;;;;;;3.43;3.13;;;;;20.80;100492.00;;;;2077767;28;20635;-65
2020/12/16 03:34:44;;;;;;;3.25;3.00;;;;;20.80;100483.00;;;;2066924;28;20209;-65
2020/12/16 03:35:44;;;;;;;3.60;3.30;;;;;20.80;100483.00;;;;2069373;28;20229;-65
2020/12/16 03:36:44;;;;;;;3.60;3.30;;;;;20.80;100488.00;;;;2075149;28;20214;-65
2020/12/16 03:37:45;;;;;;;3.30;3.10;;;;;20.80;100485.00;;;;2078123;28;20219;-65
2020/12/16 03:38:46;;;;;;;3.37;3.13;;;;;20.80;100486.00;;;;2075501;28;20282;-65
2020/12/16 03:39:46;;;;;;;3.97;3.03;;;;;20.80;100496.00;;;;2078300;28;20874;-65
2020/12/16 03:40:46;;;;;;;3.30;3.10;;;;;20.70;100489.00;;;;2075363;28;20843;-65
2020/12/16 03:41:49;;;;;;;3.60;3.30;;;;;20.80;100492.00;;;;2078256;28;20215;-65
2020/12/16 03:42:49;;;;;;;3.45;2.90;;;;;20.70;100493.00;;;;2072277;28;20245;-65
2020/12/16 03:43:50;;;;;;;3.60;3.30;;;;;20.70;100489.00;;;;2072453;28;20221;-65
2020/12/16 03:44:50;;;;;;;3.70;2.90;;;;;20.80;100490.00;;;;2080061;28;20225;-65
2020/12/16 03:45:52;;;;;;;3.43;3.17;;;;;20.80;100495.00;;;;2080867;28;20223;-66
2020/12/16 03:46:52;;;;;;;3.10;2.90;;;;;20.80;100490.00;;;;2080671;28;20666;-65
2020/12/16 03:47:53;;;;;;;3.43;3.13;;;;;20.80;100488.00;;;;2080785;28;20216;-65
2020/12/16 03:48:53;;;;;;;3.20;2.90;;;;;20.70;100490.00;;;;2074280;28;20727;-65
2020/12/16 03:49:54;;;;;;;3.37;3.13;;;;;20.70;100487.00;;;;2078024;28;20301;-65
2020/12/16 03:50:54;;;;;;;3.50;3.20;;;;;20.70;100482.00;;;;2073487;28;20221;-65
2020/12/16 03:51:57;;;;;;;3.30;3.10;;;;;20.70;100476.00;;;;2079296;28;20235;-65
2020/12/16 03:52:58;;;;;;;3.25;2.95;;;;;20.70;100474.00;;;;2064991;28;20229;-65
2020/12/16 03:53:58;;;;;;;3.43;3.23;;;;;20.70;100471.00;;;;2071423;28;20237;-66
2020/12/16 03:54:58;;;;;;;2.97;2.77;;;;;20.70;100464.00;;;;2073496;28;20216;-66
2020/12/16 03:56:10;;;;;;;3.60;3.30;;;;;20.70;100470.00;;;;2079902;28;20216;-65
2020/12/16 03:57:12;;;;;;;3.42;3.13;;;;;20.70;100467.00;;;;2073211;28;20835;-65
2020/12/16 03:58:12;;;;;;;3.35;3.05;;;;;20.70;100471.00;;;;2079481;28;20216;-65
2020/12/16 03:59:13;;;;;;;3.33;3.10;;;;;20.70;100465.00;;;;2073627;28;20626;-65
2020/12/16 04:00:13;;;;;;;3.53;3.27;;;;;20.70;100460.00;;;;2078481;28;20320;-65
2020/12/16 04:01:16;;;;;;;3.30;3.07;;;;;20.70;100460.00;;;;2065013;28;20218;-65
2020/12/16 04:02:16;;;;;;;3.33;3.10;;;;;20.70;100463.00;;;;2070411;28;20226;-65
2020/12/16 04:03:17;;;;;;;3.73;3.43;;;;;20.70;100454.00;;;;2074161;28;20217;-66
2020/12/16 04:04:17;;;;;;;3.53;3.23;;;;;20.70;100461.00;;;;2079096;28;20682;-65
2020/12/16 04:05:17;;;;;;;3.20;3.00;;;;;20.70;100460.00;;;;2072466;28;20266;-65
2020/12/16 04:06:18;;;;;;;3.13;2.93;;;;;20.70;100463.00;;;;2074962;28;20237;-65
2020/12/16 04:07:18;;;;;;;3.20;2.97;;;;;20.70;100461.00;;;;2080590;28;20212;-65
2020/12/16 04:08:18;;;;;;;3.30;3.10;;;;;20.70;100465.00;;;;2080433;28;20213;-64
2020/12/16 04:09:19;;;;;;;3.30;3.00;;;;;20.70;100464.00;;;;2078985;28;20223;-65
2020/12/16 04:10:19;;;;;;;3.30;3.00;;;;;20.70;100470.00;;;;2073120;28;20209;-65
2020/12/16 04:11:19;;;;;;;4.80;3.70;;;;;20.70;100465.00;;;;2078262;28;20227;-65
2020/12/16 04:12:20;;;;;;;3.13;2.90;;;;;20.70;100465.00;;;;2074057;28;20225;-65
2020/12/16 04:13:20;;;;;;;3.30;3.00;;;;;20.70;100473.00;;;;2078277;28;20216;-65
2020/12/16 04:14:21;;;;;;;3.17;2.97;;;;;20.70;100472.00;;;;2074246;28;20320;-65
2020/12/16 04:15:21;;;;;;;2.97;2.77;;;;;20.70;100474.00;;;;2078174;28;20208;-66
2020/12/16 04:16:22;;;;;;;3.00;2.80;;;;;20.70;100479.00;;;;2063014;28;20218;-65
2020/12/16 04:17:22;;;;;;;3.23;2.93;;;;;20.70;100481.00;;;;2069169;28;20288;-65
2020/12/16 04:18:22;;;;;;;3.17;2.97;;;;;20.60;100480.00;;;;2064825;28;20219;-65
2020/12/16 04:19:23;;;;;;;3.43;3.20;;;;;20.70;100484.00;;;;2077623;28;20251;-65
2020/12/16 04:20:23;;;;;;;3.57;3.33;;;;;20.70;100483.00;;;;2074091;28;20284;-65
2020/12/16 04:21:23;;;;;;;2.80;2.60;;;;;20.70;100489.00;;;;2066603;28;20683;-66
2020/12/16 04:22:24;;;;;;;3.40;3.10;;;;;20.70;100489.00;;;;2065578;28;20707;-66
2020/12/16 04:23:24;;;;;;;3.70;3.40;;;;;20.70;100488.00;;;;2070078;28;20219;-66
2020/12/16 04:24:25;;;;;;;3.40;3.17;;;;;20.60;100490.00;;;;2074485;28;20308;-65
2020/12/16 04:25:25;;;;;;;3.60;3.30;;;;;20.60;100489.00;;;;2077223;28;20228;-65
2020/12/16 04:26:25;;;;;;;4.00;3.60;;;;;20.60;100489.00;;;;2074530;28;20262;-66
2020/12/16 04:27:26;;;;;;;3.33;3.03;;;;;20.60;100488.00;;;;2077402;28;20216;-65
2020/12/16 04:28:26;;;;;;;3.13;2.93;;;;;20.60;100493.00;;;;2074762;28;20221;-66
2020/12/16 04:29:27;;;;;;;3.50;3.30;;;;;20.60;100496.00;;;;2067311;28;20213;-65
2020/12/16 04:30:28;;;;;;;3.60;3.30;;;;;20.60;100503.00;;;;2071554;28;20208;-65
2020/12/16 04:31:28;;;;;;;3.17;2.95;;;;;20.60;100503.00;;;;2058846;28;20224;-65
2020/12/16 04:32:28;;;;;;;3.57;3.27;;;;;20.60;100503.00;;;;2059526;28;20856;-65
2020/12/16 04:33:29;;;;;;;3.70;3.40;;;;;20.60;100505.00;;;;2072531;28;20227;-65
2020/12/16 04:34:29;;;;;;;3.20;3.00;;;;;20.60;100504.00;;;;2074365;28;20290;-65
2020/12/16 04:35:29;;;;;;;5.47;3.50;;;;;20.60;100506.00;;;;2071827;28;20212;-66
2020/12/16 04:36:30;;;;;;;3.50;3.30;;;;;20.60;100506.00;;;;2074554;28;20292;-67
2020/12/16 04:37:30;;;;;;;3.90;3.20;;;;;20.60;100509.00;;;;2079724;28;20211;-65
2020/12/16 04:38:30;;;;;;;3.73;3.43;;;;;20.60;100508.00;;;;2079261;28;20240;-65
2020/12/16 04:39:31;;;;;;;3.23;3.03;;;;;20.60;100497.00;;;;2076648;28;20224;-65
2020/12/16 04:40:31;;;;;;;3.87;3.57;;;;;20.60;100503.00;;;;2063284;28;20219;-65
2020/12/16 04:41:31;;;;;;;3.17;2.93;;;;;20.60;100501.00;;;;2067618;28;20343;-65
2020/12/16 04:42:32;;;;;;;3.30;3.10;;;;;20.60;100503.00;;;;2068637;28;20208;-65
2020/12/16 04:43:32;;;;;;;3.23;3.03;;;;;20.60;100497.00;;;;2075922;28;20212;-65
2020/12/16 04:44:33;;;;;;;3.70;3.40;;;;;20.60;100491.00;;;;2054996;28;20227;-65
2020/12/16 04:45:35;;;;;;;5.33;3.27;;;;;20.60;100492.00;;;;2051992;28;20213;-65
2020/12/16 04:46:37;;;;;;;3.67;3.38;;;;;20.60;100482.00;;;;2061908;28;20220;-65
2020/12/16 04:47:38;;;;;;;3.20;3.00;;;;;20.60;100485.00;;;;2076106;28;20208;-65
2020/12/16 04:48:38;;;;;;;2.80;2.53;;;;;20.60;100486.00;;;;2076746;28;20223;-65
2020/12/16 04:49:38;;;;;;;3.80;3.50;;;;;20.60;100476.00;;;;2067117;28;20229;-65
2020/12/16 04:50:39;;;;;;;3.40;3.10;;;;;20.60;100473.00;;;;2068194;28;20227;-65
2020/12/16 04:51:43;;;;;;;2.97;2.77;;;;;20.60;100472.00;;;;2080457;28;20306;-65
2020/12/16 04:52:46;;;;;;;3.47;3.25;;;;;20.60;100481.00;;;;2075242;28;20212;-65
2020/12/16 04:53:46;;;;;;;3.20;3.00;;;;;20.60;100465.00;;;;2069106;28;20729;-65
2020/12/16 04:54:47;;;;;;;3.30;3.10;;;;;20.60;100467.00;;;;2065828;28;20232;-65
2020/12/16 04:55:47;;;;;;;3.60;3.30;;;;;20.60;100478.00;;;;2052855;28;20221;-67
2020/12/16 04:56:47;;;;;;;3.60;3.30;;;;;20.60;100470.00;;;;2063541;28;20217;-65
2020/12/16 04:57:51;;;;;;;5.07;3.53;;;;;20.60;100464.00;;;;2069184;28;20294;-66
2020/12/16 04:58:53;;;;;;;3.40;3.20;;;;;20.60;100467.00;;;;2071431;28;20220;-65
2020/12/16 04:59:55;;;;;;;3.30;3.10;;;;;20.60;100469.00;;;;2078499;28;20359;-65
2020/12/16 05:00:55;;;;;;;3.05;2.85;;;;;20.60;100473.00;;;;2064922;28;20231;-65